sensor_id;sensor_type;location;lat;lon;timestamp;pressure;altitude;pressure_sealevel;temperature;humidity
35778;BME280;21899;42.662;23.316;2023-04-20T00:01:51;94057.28;;;10.18;74.78
35778;BME280;21899;42.662;23.316;2023-04-20T00:04:16;94054.22;;;10.20;74.29
35778;BME280;21899;42.662;23.316;2023-04-20T00:06:43;94039.78;;;10.00;74.49
35778;BME280;21899;42.662;23.316;2023-04-20T00:09:10;94045.84;;;10.14;74.63
35778;BME280;21899;42.662;23.316;2023-04-20T00:11:37;94048.16;;;10.12;74.47
35778;BME280;21899;42.662;23.316;2023-04-20T00:14:02;94039.72;;;10.07;74.91
35778;BME280;21899;42.662;23.316;2023-04-20T00:16:28;94046.97;;;10.13;75.15
35778;BME280;21899;42.662;23.316;2023-04-20T00:18:54;94039.75;;;10.10;75.15
35778;BME280;21899;42.662;23.316;2023-04-20T00:21:20;94037.06;;;10.10;75.71
35778;BME280;21899;42.662;23.316;2023-04-20T00:23:51;94035.16;;;10.07;75.66
35778;BME280;21899;42.662;23.316;2023-04-20T00:26:17;94030.19;;;10.02;76.21
35778;BME280;21899;42.662;23.316;2023-04-20T00:28:43;94025.25;;;9.97;76.50
35778;BME280;21899;42.662;23.316;2023-04-20T00:31:09;94036.66;;;10.05;76.71
35778;BME280;21899;42.662;23.316;2023-04-20T00:33:34;94032.88;;;10.06;77.32
35778;BME280;21899;42.662;23.316;2023-04-20T00:36:00;94029.81;;;10.07;76.79
35778;BME280;21899;42.662;23.316;2023-04-20T00:38:26;94023.38;;;9.94;77.42
35778;BME280;21899;42.662;23.316;2023-04-20T00:40:53;94025.66;;;9.92;77.43
35778;BME280;21899;42.662;23.316;2023-04-20T00:43:19;94024.88;;;9.95;77.81
35778;BME280;21899;42.662;23.316;2023-04-20T00:45:45;94029.09;;;9.96;77.25
35778;BME280;21899;42.662;23.316;2023-04-20T00:48:11;94029.44;;;10.09;76.73
35778;BME280;21899;42.662;23.316;2023-04-20T00:50:38;94032.13;;;10.09;77.17
35778;BME280;21899;42.662;23.316;2023-04-20T00:53:04;94022.97;;;9.99;77.60
35778;BME280;21899;42.662;23.316;2023-04-20T00:55:31;94031.78;;;9.89;78.82
35778;BME280;21899;42.662;23.316;2023-04-20T00:57:57;94034.84;;;9.84;79.60
35778;BME280;21899;42.662;23.316;2023-04-20T01:00:23;94026.13;;;9.73;80.57
35778;BME280;21899;42.662;23.316;2023-04-20T01:02:48;94020.78;;;9.66;81.18
35778;BME280;21899;42.662;23.316;2023-04-20T01:05:14;94032.66;;;9.62;82.10
35778;BME280;21899;42.662;23.316;2023-04-20T01:07:40;94010.16;;;9.45;82.71
35778;BME280;21899;42.662;23.316;2023-04-20T01:10:07;94030.00;;;9.44;83.65
35778;BME280;21899;42.662;23.316;2023-04-20T01:12:33;94017.06;;;9.32;84.17
35778;BME280;21899;42.662;23.316;2023-04-20T01:14:59;94031.16;;;9.29;85.34
35778;BME280;21899;42.662;23.316;2023-04-20T01:17:25;94015.94;;;9.15;86.00
35778;BME280;21899;42.662;23.316;2023-04-20T01:19:50;94027.00;;;9.10;86.95
35778;BME280;21899;42.662;23.316;2023-04-20T01:22:19;94033.13;;;9.04;88.01
35778;BME280;21899;42.662;23.316;2023-04-20T01:24:45;94031.56;;;9.03;88.49
35778;BME280;21899;42.662;23.316;2023-04-20T01:27:12;94030.06;;;8.98;88.48
35778;BME280;21899;42.662;23.316;2023-04-20T01:29:38;94027.00;;;8.93;88.34
35778;BME280;21899;42.662;23.316;2023-04-20T01:32:03;94025.09;;;8.93;89.16
35778;BME280;21899;42.662;23.316;2023-04-20T01:34:29;94013.66;;;8.93;88.82
35778;BME280;21899;42.662;23.316;2023-04-20T01:36:54;94016.72;;;8.98;89.35
35778;BME280;21899;42.662;23.316;2023-04-20T01:39:20;94005.66;;;9.00;89.15
35778;BME280;21899;42.662;23.316;2023-04-20T01:41:45;94022.78;;;9.09;89.01
35778;BME280;21899;42.662;23.316;2023-04-20T01:44:11;94014.03;;;9.09;88.96
35778;BME280;21899;42.662;23.316;2023-04-20T01:46:37;94002.59;;;8.98;89.08
35778;BME280;21899;42.662;23.316;2023-04-20T01:49:04;94011.72;;;9.11;88.92
35778;BME280;21899;42.662;23.316;2023-04-20T01:51:30;94013.25;;;9.19;88.78
35778;BME280;21899;42.662;23.316;2023-04-20T01:53:57;94004.84;;;9.20;88.34
35778;BME280;21899;42.662;23.316;2023-04-20T01:56:22;94003.34;;;9.19;88.08
35778;BME280;21899;42.662;23.316;2023-04-20T01:58:48;93996.09;;;9.20;88.13
35778;BME280;21899;42.662;23.316;2023-04-20T02:01:13;94009.44;;;9.16;88.04
35778;BME280;21899;42.662;23.316;2023-04-20T02:03:39;94001.81;;;9.08;88.90
35778;BME280;21899;42.662;23.316;2023-04-20T02:06:04;94000.31;;;9.03;89.25
35778;BME280;21899;42.662;23.316;2023-04-20T02:08:30;93999.53;;;8.96;89.98
35778;BME280;21899;42.662;23.316;2023-04-20T02:10:55;93993.84;;;8.94;90.34
35778;BME280;21899;42.662;23.316;2023-04-20T02:13:20;93996.50;;;9.08;90.11
35778;BME280;21899;42.662;23.316;2023-04-20T02:15:46;93998.78;;;9.13;89.73
35778;BME280;21899;42.662;23.316;2023-04-20T02:18:11;93997.25;;;9.12;89.01
35778;BME280;21899;42.662;23.316;2023-04-20T02:20:37;94001.81;;;9.08;88.92
35778;BME280;21899;42.662;23.316;2023-04-20T02:23:02;93998.38;;;9.18;88.60
35778;BME280;21899;42.662;23.316;2023-04-20T02:25:28;94000.28;;;9.17;88.33
35778;BME280;21899;42.662;23.316;2023-04-20T02:27:53;94002.59;;;9.12;88.26
35778;BME280;21899;42.662;23.316;2023-04-20T02:30:19;93997.66;;;9.10;87.81
35778;BME280;21899;42.662;23.316;2023-04-20T02:32:44;93996.50;;;9.11;87.65
35778;BME280;21899;42.662;23.316;2023-04-20T02:35:10;93988.88;;;9.13;87.19
35778;BME280;21899;42.662;23.316;2023-04-20T02:37:35;94001.81;;;9.22;86.56
35778;BME280;21899;42.662;23.316;2023-04-20T02:40:01;94001.06;;;9.25;85.96
35778;BME280;21899;42.662;23.316;2023-04-20T02:42:26;93996.44;;;9.25;85.90
35778;BME280;21899;42.662;23.316;2023-04-20T02:44:51;94003.72;;;9.29;85.47
35778;BME280;21899;42.662;23.316;2023-04-20T02:47:17;94011.72;;;9.32;84.99
35778;BME280;21899;42.662;23.316;2023-04-20T02:49:43;94008.66;;;9.30;85.33
35778;BME280;21899;42.662;23.316;2023-04-20T02:52:08;94001.44;;;9.23;86.18
35778;BME280;21899;42.662;23.316;2023-04-20T02:54:34;94002.94;;;9.17;87.56
35778;BME280;21899;42.662;23.316;2023-04-20T02:56:59;94004.50;;;9.15;88.60
35778;BME280;21899;42.662;23.316;2023-04-20T02:59:25;94007.16;;;9.15;88.46
35778;BME280;21899;42.662;23.316;2023-04-20T03:01:51;94006.78;;;9.13;88.92
35778;BME280;21899;42.662;23.316;2023-04-20T03:04:16;94000.66;;;9.12;88.89
35778;BME280;21899;42.662;23.316;2023-04-20T03:06:43;93997.25;;;9.15;88.31
35778;BME280;21899;42.662;23.316;2023-04-20T03:09:09;94006.41;;;9.18;87.61
35778;BME280;21899;42.662;23.316;2023-04-20T03:11:35;93998.78;;;9.16;87.58
35778;BME280;21899;42.662;23.316;2023-04-20T03:14:00;94006.78;;;9.20;87.23
35778;BME280;21899;42.662;23.316;2023-04-20T03:16:26;93996.09;;;9.13;87.18
35778;BME280;21899;42.662;23.316;2023-04-20T03:18:51;94001.81;;;9.15;87.51
35778;BME280;21899;42.662;23.316;2023-04-20T03:21:17;93994.22;;;9.06;87.49
35778;BME280;21899;42.662;23.316;2023-04-20T03:23:42;94003.34;;;9.12;87.89
35778;BME280;21899;42.662;23.316;2023-04-20T03:26:07;93998.00;;;9.16;87.91
35778;BME280;21899;42.662;23.316;2023-04-20T03:28:33;93998.00;;;9.16;87.73
35778;BME280;21899;42.662;23.316;2023-04-20T03:30:58;94004.50;;;9.15;87.24
35778;BME280;21899;42.662;23.316;2023-04-20T03:33:25;94006.00;;;9.12;87.46
35778;BME280;21899;42.662;23.316;2023-04-20T03:35:51;94006.78;;;9.13;87.14
35778;BME280;21899;42.662;23.316;2023-04-20T03:38:17;94004.88;;;9.17;87.29
35778;BME280;21899;42.662;23.316;2023-04-20T03:40:42;94005.63;;;9.14;87.72
35778;BME280;21899;42.662;23.316;2023-04-20T03:43:07;94001.81;;;9.15;87.42
35778;BME280;21899;42.662;23.316;2023-04-20T03:45:33;93996.50;;;9.15;87.19
35778;BME280;21899;42.662;23.316;2023-04-20T03:47:58;94003.34;;;9.23;86.43
35778;BME280;21899;42.662;23.316;2023-04-20T03:50:24;93998.00;;;9.23;86.19
35778;BME280;21899;42.662;23.316;2023-04-20T03:52:49;93997.59;;;9.28;86.04
35778;BME280;21899;42.662;23.316;2023-04-20T03:55:15;94002.16;;;9.38;85.76
35778;BME280;21899;42.662;23.316;2023-04-20T03:57:40;94005.56;;;9.42;85.41
35778;BME280;21899;42.662;23.316;2023-04-20T04:00:06;94010.91;;;9.49;83.98
35778;BME280;21899;42.662;23.316;2023-04-20T04:02:32;94001.75;;;9.50;83.47
35778;BME280;21899;42.662;23.316;2023-04-20T04:04:58;93994.88;;;9.49;82.85
35778;BME280;21899;42.662;23.316;2023-04-20T04:07:23;94012.00;;;9.62;81.65
35778;BME280;21899;42.662;23.316;2023-04-20T04:09:49;94006.66;;;9.69;82.23
35778;BME280;21899;42.662;23.316;2023-04-20T04:12:14;94015.44;;;9.66;81.55
35778;BME280;21899;42.662;23.316;2023-04-20T04:14:40;94015.81;;;9.72;81.18
35778;BME280;21899;42.662;23.316;2023-04-20T04:17:05;94021.53;;;9.74;81.30
35778;BME280;21899;42.662;23.316;2023-04-20T04:19:32;94023.81;;;9.75;81.26
35778;BME280;21899;42.662;23.316;2023-04-20T04:21:57;94012.75;;;9.73;81.67
35778;BME280;21899;42.662;23.316;2023-04-20T04:24:22;94010.09;;;9.73;81.57
35778;BME280;21899;42.662;23.316;2023-04-20T04:26:48;94015.00;;;9.85;81.03
35778;BME280;21899;42.662;23.316;2023-04-20T04:29:14;94016.88;;;9.88;80.71
35778;BME280;21899;42.662;23.316;2023-04-20T04:31:40;94019.56;;;9.88;80.67
35778;BME280;21899;42.662;23.316;2023-04-20T04:34:05;94010.81;;;9.84;80.92
35778;BME280;21899;42.662;23.316;2023-04-20T04:36:31;94017.25;;;9.90;80.68
35778;BME280;21899;42.662;23.316;2023-04-20T04:38:56;94024.50;;;9.93;80.62
35778;BME280;21899;42.662;23.316;2023-04-20T04:41:21;94023.00;;;9.92;80.77
35778;BME280;21899;42.662;23.316;2023-04-20T04:43:47;94030.59;;;9.97;80.38
35778;BME280;21899;42.662;23.316;2023-04-20T04:46:13;94023.75;;;9.89;80.58
35778;BME280;21899;42.662;23.316;2023-04-20T04:48:38;94032.88;;;10.02;80.63
35778;BME280;21899;42.662;23.316;2023-04-20T04:51:08;94043.56;;;10.06;79.82
35778;BME280;21899;42.662;23.316;2023-04-20T04:53:34;94035.22;;;9.90;79.75
35778;BME280;21899;42.662;23.316;2023-04-20T04:55:59;94039.78;;;9.93;80.20
35778;BME280;21899;42.662;23.316;2023-04-20T04:58:25;94043.22;;;9.93;80.49
35778;BME280;21899;42.662;23.316;2023-04-20T05:00:51;94032.19;;;9.84;81.18
35778;BME280;21899;42.662;23.316;2023-04-20T05:03:16;94045.88;;;9.97;80.67
35778;BME280;21899;42.662;23.316;2023-04-20T05:05:42;94046.25;;;9.95;80.73
35778;BME280;21899;42.662;23.316;2023-04-20T05:08:07;94048.97;;;9.88;80.48
35778;BME280;21899;42.662;23.316;2023-04-20T05:10:33;94058.91;;;9.91;80.92
35778;BME280;21899;42.662;23.316;2023-04-20T05:12:58;94039.81;;;9.89;80.85
35778;BME280;21899;42.662;23.316;2023-04-20T05:15:25;94037.44;;;10.02;80.35
35778;BME280;21899;42.662;23.316;2023-04-20T05:17:50;94048.91;;;10.02;80.24
35778;BME280;21899;42.662;23.316;2023-04-20T05:20:16;94051.59;;;10.09;80.32
35778;BME280;21899;42.662;23.316;2023-04-20T05:22:42;94048.50;;;10.18;80.02
35778;BME280;21899;42.662;23.316;2023-04-20T05:25:08;94048.06;;;10.30;79.46
35778;BME280;21899;42.662;23.316;2023-04-20T05:27:33;94050.31;;;10.38;79.01
35778;BME280;21899;42.662;23.316;2023-04-20T05:29:59;94043.44;;;10.37;78.26
35778;BME280;21899;42.662;23.316;2023-04-20T05:32:24;94036.56;;;10.36;78.31
35778;BME280;21899;42.662;23.316;2023-04-20T05:34:50;94040.38;;;10.39;78.25
35778;BME280;21899;42.662;23.316;2023-04-20T05:37:15;94060.97;;;10.45;78.47
35778;BME280;21899;42.662;23.316;2023-04-20T05:39:41;94059.03;;;10.49;78.30
35778;BME280;21899;42.662;23.316;2023-04-20T05:42:07;94053.78;;;10.35;78.72
35778;BME280;21899;42.662;23.316;2023-04-20T05:44:32;94053.81;;;10.21;80.14
35778;BME280;21899;42.662;23.316;2023-04-20T05:46:58;94054.97;;;10.27;81.18
35778;BME280;21899;42.662;23.316;2023-04-20T05:49:24;94053.38;;;10.33;81.58
35778;BME280;21899;42.662;23.316;2023-04-20T05:51:50;94046.19;;;10.23;81.20
35778;BME280;21899;42.662;23.316;2023-04-20T05:54:15;94040.44;;;10.21;81.49
35778;BME280;21899;42.662;23.316;2023-04-20T05:56:41;94060.31;;;10.24;81.89
35778;BME280;21899;42.662;23.316;2023-04-20T05:59:07;94057.28;;;10.15;82.44
35778;BME280;21899;42.662;23.316;2023-04-20T06:01:33;94058.03;;;10.22;82.59
35778;BME280;21899;42.662;23.316;2023-04-20T06:03:58;94059.56;;;10.20;82.61
35778;BME280;21899;42.662;23.316;2023-04-20T06:06:24;94061.13;;;10.17;82.41
35778;BME280;21899;42.662;23.316;2023-04-20T06:08:50;94046.97;;;10.20;82.42
35778;BME280;21899;42.662;23.316;2023-04-20T06:11:16;94052.63;;;10.33;83.72
35778;BME280;21899;42.662;23.316;2023-04-20T06:13:42;94051.50;;;10.27;84.56
35778;BME280;21899;42.662;23.316;2023-04-20T06:16:07;94054.59;;;10.18;85.95
35778;BME280;21899;42.662;23.316;2023-04-20T06:18:35;94056.16;;;10.19;86.86
35778;BME280;21899;42.662;23.316;2023-04-20T06:21:01;94058.81;;;10.19;85.79
35778;BME280;21899;42.662;23.316;2023-04-20T06:23:26;94067.19;;;10.25;86.32
35778;BME280;21899;42.662;23.316;2023-04-20T06:25:52;94059.53;;;10.27;84.95
35778;BME280;21899;42.662;23.316;2023-04-20T06:28:17;94072.09;;;10.40;83.77
35778;BME280;21899;42.662;23.316;2023-04-20T06:30:43;94064.78;;;10.44;84.60
35778;BME280;21899;42.662;23.316;2023-04-20T06:33:08;94069.38;;;10.51;83.35
35778;BME280;21899;42.662;23.316;2023-04-20T06:35:33;94060.97;;;10.45;82.94
35778;BME280;21899;42.662;23.316;2023-04-20T06:37:59;94059.03;;;10.49;82.91
35778;BME280;21899;42.662;23.316;2023-04-20T06:40:27;94066.66;;;10.54;83.34
35778;BME280;21899;42.662;23.316;2023-04-20T06:42:53;94073.50;;;10.63;83.54
35778;BME280;21899;42.662;23.316;2023-04-20T06:45:18;94062.84;;;10.56;83.02
35778;BME280;21899;42.662;23.316;2023-04-20T06:47:44;94073.13;;;10.64;82.58
35778;BME280;21899;42.662;23.316;2023-04-20T06:50:10;94069.31;;;10.58;82.99
35778;BME280;21899;42.662;23.316;2023-04-20T06:52:37;94070.88;;;10.56;82.94
35778;BME280;21899;42.662;23.316;2023-04-20T06:55:03;94079.28;;;10.58;83.69
35778;BME280;21899;42.662;23.316;2023-04-20T06:57:29;94083.84;;;10.61;82.25
35778;BME280;21899;42.662;23.316;2023-04-20T06:59:54;94090.41;;;10.45;85.46
35778;BME280;21899;42.662;23.316;2023-04-20T07:02:20;94081.72;;;10.27;89.11
35778;BME280;21899;42.662;23.316;2023-04-20T07:04:45;94095.88;;;10.14;91.32
35778;BME280;21899;42.662;23.316;2023-04-20T07:07:10;94089.38;;;10.22;92.62
35778;BME280;21899;42.662;23.316;2023-04-20T07:09:36;94089.75;;;10.17;93.23
35778;BME280;21899;42.662;23.316;2023-04-20T07:12:01;94090.16;;;10.15;92.79
35778;BME280;21899;42.662;23.316;2023-04-20T07:14:27;94094.69;;;10.29;92.38
35778;BME280;21899;42.662;23.316;2023-04-20T07:16:53;94106.06;;;10.50;92.35
35778;BME280;21899;42.662;23.316;2023-04-20T07:19:18;94101.41;;;10.62;88.42
35778;BME280;21899;42.662;23.316;2023-04-20T07:21:44;94096.72;;;10.80;87.69
35778;BME280;21899;42.662;23.316;2023-04-20T07:24:10;94095.81;;;11.04;87.03
35778;BME280;21899;42.662;23.316;2023-04-20T07:26:35;94090.56;;;11.37;85.45
35778;BME280;21899;42.662;23.316;2023-04-20T07:29:00;94086.13;;;11.61;81.24
35778;BME280;21899;42.662;23.316;2023-04-20T07:31:26;94094.47;;;11.73;79.74
35778;BME280;21899;42.662;23.316;2023-04-20T07:33:51;94094.38;;;11.84;77.99
35778;BME280;21899;42.662;23.316;2023-04-20T07:36:17;94086.34;;;11.80;77.96
35778;BME280;21899;42.662;23.316;2023-04-20T07:38:42;94089.59;;;12.02;78.29
35778;BME280;21899;42.662;23.316;2023-04-20T07:41:11;94092.47;;;12.18;75.43
35778;BME280;21899;42.662;23.316;2023-04-20T07:43:37;94093.13;;;12.29;73.26
35778;BME280;21899;42.662;23.316;2023-04-20T07:46:03;94092.81;;;12.20;72.43
35778;BME280;21899;42.662;23.316;2023-04-20T07:48:29;94082.28;;;12.36;71.36
35778;BME280;21899;42.662;23.316;2023-04-20T07:50:54;94084.69;;;12.61;70.22
35778;BME280;21899;42.662;23.316;2023-04-20T07:53:20;94086.78;;;13.03;69.66
35778;BME280;21899;42.662;23.316;2023-04-20T07:55:45;94089.66;;;13.16;68.35
35778;BME280;21899;42.662;23.316;2023-04-20T07:58:10;94087.75;;;13.39;66.84
35778;BME280;21899;42.662;23.316;2023-04-20T08:00:36;94074.53;;;13.52;65.02
35778;BME280;21899;42.662;23.316;2023-04-20T08:03:02;94083.38;;;13.72;64.61
35778;BME280;21899;42.662;23.316;2023-04-20T08:05:27;94082.19;;;13.96;63.03
35778;BME280;21899;42.662;23.316;2023-04-20T08:07:53;94077.97;;;13.95;62.18
35778;BME280;21899;42.662;23.316;2023-04-20T08:10:18;94093.56;;;14.23;61.91
35778;BME280;21899;42.662;23.316;2023-04-20T08:12:44;94081.38;;;14.38;60.65
35778;BME280;21899;42.662;23.316;2023-04-20T08:15:09;94087.38;;;14.65;59.14
35778;BME280;21899;42.662;23.316;2023-04-20T08:17:35;94082.59;;;14.73;58.36
35778;BME280;21899;42.662;23.316;2023-04-20T08:20:00;94089.09;;;14.75;59.01
35778;BME280;21899;42.662;23.316;2023-04-20T08:22:26;94090.28;;;14.55;59.45
35778;BME280;21899;42.662;23.316;2023-04-20T08:24:57;94079.88;;;14.57;59.17
35778;BME280;21899;42.662;23.316;2023-04-20T08:27:23;94098.03;;;14.33;61.07
35778;BME280;21899;42.662;23.316;2023-04-20T08:29:50;94089.91;;;13.94;61.53
35778;BME280;21899;42.662;23.316;2023-04-20T08:32:15;94091.34;;;13.56;63.13
35778;BME280;21899;42.662;23.316;2023-04-20T08:34:43;94092.31;;;13.42;63.23
35778;BME280;21899;42.662;23.316;2023-04-20T08:37:08;94092.22;;;13.49;63.11
35778;BME280;21899;42.662;23.316;2023-04-20T08:39:34;94091.56;;;13.42;63.44
35778;BME280;21899;42.662;23.316;2023-04-20T08:41:59;94089.34;;;13.37;63.95
35778;BME280;21899;42.662;23.316;2023-04-20T08:44:26;94084.91;;;13.27;64.79
35778;BME280;21899;42.662;23.316;2023-04-20T08:46:51;94101.41;;;13.52;64.08
35778;BME280;21899;42.662;23.316;2023-04-20T08:49:18;94092.25;;;13.46;63.89
35778;BME280;21899;42.662;23.316;2023-04-20T08:51:44;94110.25;;;13.26;64.84
35778;BME280;21899;42.662;23.316;2023-04-20T08:54:11;94092.84;;;13.11;64.78
35778;BME280;21899;42.662;23.316;2023-04-20T08:56:38;94091.59;;;12.88;66.18
35778;BME280;21899;42.662;23.316;2023-04-20T08:59:05;94096.78;;;12.99;66.35
35778;BME280;21899;42.662;23.316;2023-04-20T09:01:34;94103.47;;;12.87;67.31
35778;BME280;21899;42.662;23.316;2023-04-20T09:04:00;94105.31;;;12.94;67.22
35778;BME280;21899;42.662;23.316;2023-04-20T09:06:26;94104.56;;;12.93;67.66
35778;BME280;21899;42.662;23.316;2023-04-20T09:08:52;94109.38;;;12.79;67.41
35778;BME280;21899;42.662;23.316;2023-04-20T09:11:22;94092.97;;;12.70;67.32
35778;BME280;21899;42.662;23.316;2023-04-20T09:14:05;94105.47;;;12.83;67.63
35778;BME280;21899;42.662;23.316;2023-04-20T09:16:32;94114.44;;;13.03;66.92
35778;BME280;21899;42.662;23.316;2023-04-20T09:18:59;94101.84;;;13.24;65.82
35778;BME280;21899;42.662;23.316;2023-04-20T09:21:26;94107.75;;;13.38;65.05
35778;BME280;21899;42.662;23.316;2023-04-20T09:24:05;94107.88;;;13.54;64.50
35778;BME280;21899;42.662;23.316;2023-04-20T09:26:32;94096.22;;;13.84;63.94
35778;BME280;21899;42.662;23.316;2023-04-20T09:28:59;94092.41;;;14.04;61.96
35778;BME280;21899;42.662;23.316;2023-04-20T09:31:24;94096.94;;;14.30;60.77
35778;BME280;21899;42.662;23.316;2023-04-20T09:33:57;94083.47;;;14.50;59.17
35778;BME280;21899;42.662;23.316;2023-04-20T09:36:23;94087.50;;;14.78;58.36
35778;BME280;21899;42.662;23.316;2023-04-20T09:39:04;94086.44;;;14.91;56.92
35778;BME280;21899;42.662;23.316;2023-04-20T09:41:31;94089.34;;;15.00;56.21
35778;BME280;21899;42.662;23.316;2023-04-20T09:43:57;94091.00;;;14.94;56.52
35778;BME280;21899;42.662;23.316;2023-04-20T09:46:24;94084.25;;;15.02;56.49
35778;BME280;21899;42.662;23.316;2023-04-20T09:48:50;94087.50;;;15.13;56.03
35778;BME280;21899;42.662;23.316;2023-04-20T09:51:16;94075.53;;;15.30;55.50
35778;BME280;21899;42.662;23.316;2023-04-20T09:53:42;94075.22;;;15.44;55.21
35778;BME280;21899;42.662;23.316;2023-04-20T09:56:07;94076.84;;;15.58;55.01
35778;BME280;21899;42.662;23.316;2023-04-20T09:58:33;94076.41;;;15.59;54.20
35778;BME280;21899;42.662;23.316;2023-04-20T10:01:00;94067.66;;;15.39;54.32
35778;BME280;21899;42.662;23.316;2023-04-20T10:03:26;94072.94;;;15.27;55.26
35778;BME280;21899;42.662;23.316;2023-04-20T10:05:52;94060.88;;;15.31;55.13
35778;BME280;21899;42.662;23.316;2023-04-20T10:08:20;94070.81;;;15.34;54.32
35778;BME280;21899;42.662;23.316;2023-04-20T10:10:49;94068.06;;;14.86;55.22
35778;BME280;21899;42.662;23.316;2023-04-20T10:13:16;94054.22;;;14.32;58.59
35778;BME280;21899;42.662;23.316;2023-04-20T10:15:46;94054.03;;;14.20;59.06
35778;BME280;21899;42.662;23.316;2023-04-20T10:18:19;94059.03;;;14.41;59.56
35778;BME280;21899;42.662;23.316;2023-04-20T10:20:45;94068.53;;;14.65;58.35
35778;BME280;21899;42.662;23.316;2023-04-20T10:23:10;94060.91;;;14.96;56.90
35778;BME280;21899;42.662;23.316;2023-04-20T10:25:38;94045.94;;;15.11;55.61
35778;BME280;21899;42.662;23.316;2023-04-20T10:28:04;94054.16;;;15.23;55.12
35778;BME280;21899;42.662;23.316;2023-04-20T10:30:35;94060.13;;;15.31;55.13
35778;BME280;21899;42.662;23.316;2023-04-20T10:33:11;94049.88;;;15.42;54.50
35778;BME280;21899;42.662;23.316;2023-04-20T10:35:47;94048.78;;;15.39;53.78
35778;BME280;21899;42.662;23.316;2023-04-20T10:38:14;94050.00;;;15.35;53.71
35778;BME280;21899;42.662;23.316;2023-04-20T10:40:40;94048.56;;;15.30;54.60
35778;BME280;21899;42.662;23.316;2023-04-20T10:43:19;94036.28;;;15.45;54.32
35778;BME280;21899;42.662;23.316;2023-04-20T10:45:45;94038.31;;;15.25;54.25
35778;BME280;21899;42.662;23.316;2023-04-20T10:48:11;94050.84;;;15.16;55.25
35778;BME280;21899;42.662;23.316;2023-04-20T10:50:38;94046.50;;;14.86;55.04
35778;BME280;21899;42.662;23.316;2023-04-20T10:53:03;94059.16;;;14.89;54.98
35778;BME280;21899;42.662;23.316;2023-04-20T10:55:29;94044.31;;;14.81;56.10
35778;BME280;21899;42.662;23.316;2023-04-20T10:57:55;94036.00;;;15.08;56.22
35778;BME280;21899;42.662;23.316;2023-04-20T11:00:25;94043.59;;;15.13;54.72
35778;BME280;21899;42.662;23.316;2023-04-20T11:02:53;94030.44;;;15.31;54.17
35778;BME280;21899;42.662;23.316;2023-04-20T11:05:20;94037.91;;;15.43;54.03
35778;BME280;21899;42.662;23.316;2023-04-20T11:07:57;94046.56;;;15.50;54.25
35778;BME280;21899;42.662;23.316;2023-04-20T11:10:35;94035.03;;;15.50;53.98
35778;BME280;21899;42.662;23.316;2023-04-20T11:13:01;94030.75;;;15.81;53.30
35778;BME280;21899;42.662;23.316;2023-04-20T11:15:33;94036.25;;;15.78;52.76
35778;BME280;21899;42.662;23.316;2023-04-20T11:18:08;94048.09;;;15.51;53.54
35778;BME280;21899;42.662;23.316;2023-04-20T11:20:34;94023.78;;;15.68;53.21
35778;BME280;21899;42.662;23.316;2023-04-20T11:23:00;94021.06;;;16.12;52.52
35778;BME280;21899;42.662;23.316;2023-04-20T11:25:29;94019.91;;;16.26;51.05
35778;BME280;21899;42.662;23.316;2023-04-20T11:28:04;94021.66;;;16.45;50.73
35778;BME280;21899;42.662;23.316;2023-04-20T11:30:38;94018.50;;;16.75;50.23
35778;BME280;21899;42.662;23.316;2023-04-20T11:33:03;94029.31;;;17.00;48.49
35778;BME280;21899;42.662;23.316;2023-04-20T11:35:37;94020.50;;;17.34;47.08
35778;BME280;21899;42.662;23.316;2023-04-20T11:38:04;94025.59;;;17.44;45.97
35778;BME280;21899;42.662;23.316;2023-04-20T11:40:29;94026.78;;;17.56;45.31
35778;BME280;21899;42.662;23.316;2023-04-20T11:42:55;94017.69;;;17.62;45.89
35778;BME280;21899;42.662;23.316;2023-04-20T11:45:20;94009.66;;;17.71;44.75
35778;BME280;21899;42.662;23.316;2023-04-20T11:47:47;94007.72;;;17.93;44.37
35778;BME280;21899;42.662;23.316;2023-04-20T11:50:13;94009.97;;;17.95;44.16
35778;BME280;21899;42.662;23.316;2023-04-20T11:52:39;94005.41;;;17.70;45.51
35778;BME280;21899;42.662;23.316;2023-04-20T11:55:05;94018.66;;;17.56;45.74
35778;BME280;21899;42.662;23.316;2023-04-20T11:57:30;94011.66;;;17.46;46.22
35778;BME280;21899;42.662;23.316;2023-04-20T11:59:55;94009.03;;;17.42;45.67
35778;BME280;21899;42.662;23.316;2023-04-20T12:02:21;94007.84;;;17.43;44.73
35778;BME280;21899;42.662;23.316;2023-04-20T12:04:46;94007.84;;;17.43;44.85
35778;BME280;21899;42.662;23.316;2023-04-20T12:07:12;93995.75;;;17.48;44.57
35778;BME280;21899;42.662;23.316;2023-04-20T12:09:37;94011.84;;;17.39;45.26
35778;BME280;21899;42.662;23.316;2023-04-20T12:12:04;94007.22;;;17.14;45.28
35778;BME280;21899;42.662;23.316;2023-04-20T12:14:30;94018.28;;;16.94;46.02
35778;BME280;21899;42.662;23.316;2023-04-20T12:16:58;94017.72;;;16.21;48.56
35778;BME280;21899;42.662;23.316;2023-04-20T12:19:23;94020.69;;;15.37;51.55
35778;BME280;21899;42.662;23.316;2023-04-20T12:21:48;94025.66;;;14.90;54.43
35778;BME280;21899;42.662;23.316;2023-04-20T12:24:14;94019.88;;;14.36;56.99
35778;BME280;21899;42.662;23.316;2023-04-20T12:26:39;94023.28;;;14.01;59.50
35778;BME280;21899;42.662;23.316;2023-04-20T12:29:05;94017.31;;;13.90;62.26
35778;BME280;21899;42.662;23.316;2023-04-20T12:31:31;94013.91;;;13.90;61.27
35778;BME280;21899;42.662;23.316;2023-04-20T12:33:56;94004.56;;;13.94;61.69
35778;BME280;21899;42.662;23.316;2023-04-20T12:36:22;94009.47;;;14.19;61.10
35778;BME280;21899;42.662;23.316;2023-04-20T12:38:49;94003.94;;;14.46;59.90
35778;BME280;21899;42.662;23.316;2023-04-20T12:41:16;93997.31;;;14.66;58.31
35778;BME280;21899;42.662;23.316;2023-04-20T12:43:42;94005.50;;;14.79;56.61
35778;BME280;21899;42.662;23.316;2023-04-20T12:46:07;94004.47;;;14.73;56.27
35778;BME280;21899;42.662;23.316;2023-04-20T12:48:32;93999.28;;;14.82;56.62